Shipu, China
Current Conditions -  °F | °C
As of 11:00 AM on Monday 22 Dec 2014 (Local Time) from ZSNB Reporting Station
Clear Clear  
Wind Chill:   Ceiling: Unl
Heat Index:   Visibility: 6mi
Dew Point: -13°   Wind: 9mph
Humidity: 23%   Direction: 10°N
Pressure: 30.45"   Gusts: NA
Location:  29.2°N, 121.95°E
Report Text: ZSNB 220300Z 01004MPS 320V050 CAVOK 07/M13 Q1031 NOSIG
Loading
Personal Weather Stations






























Interactive Weather Map New forecast layout! Learn more

10-Day Weather Forecast

Advertisements
Track Severe Weather on mobile